sensor_id;sensor_type;location;lat;lon;timestamp;P1;durP1;ratioP1;P2;durP2;ratioP2
11113;SDS011;5610;52.154;9.198;2022-08-19T00:02:14;9.50;;;6.87;;
11113;SDS011;5610;52.154;9.198;2022-08-19T00:05:00;8.17;;;7.30;;
11113;SDS011;5610;52.154;9.198;2022-08-19T00:07:45;11.10;;;7.70;;
11113;SDS011;5610;52.154;9.198;2022-08-19T00:10:31;8.77;;;7.43;;
11113;SDS011;5610;52.154;9.198;2022-08-19T00:13:17;7.50;;;6.80;;
11113;SDS011;5610;52.154;9.198;2022-08-19T00:16:04;9.03;;;7.60;;
11113;SDS011;5610;52.154;9.198;2022-08-19T00:18:51;9.57;;;7.10;;
11113;SDS011;5610;52.154;9.198;2022-08-19T00:21:37;7.90;;;7.10;;
11113;SDS011;5610;52.154;9.198;2022-08-19T00:24:23;6.80;;;6.13;;
11113;SDS011;5610;52.154;9.198;2022-08-19T00:27:09;8.10;;;6.17;;
11113;SDS011;5610;52.154;9.198;2022-08-19T00:29:54;9.03;;;6.50;;
11113;SDS011;5610;52.154;9.198;2022-08-19T00:32:40;8.60;;;7.23;;
11113;SDS011;5610;52.154;9.198;2022-08-19T00:35:26;6.87;;;6.00;;
11113;SDS011;5610;52.154;9.198;2022-08-19T00:38:11;8.80;;;6.87;;
11113;SDS011;5610;52.154;9.198;2022-08-19T00:40:57;10.20;;;6.50;;
11113;SDS011;5610;52.154;9.198;2022-08-19T00:43:42;9.80;;;6.53;;
11113;SDS011;5610;52.154;9.198;2022-08-19T00:46:28;7.80;;;7.00;;
11113;SDS011;5610;52.154;9.198;2022-08-19T00:49:16;8.00;;;7.13;;
11113;SDS011;5610;52.154;9.198;2022-08-19T00:52:06;8.17;;;6.70;;
11113;SDS011;5610;52.154;9.198;2022-08-19T00:54:57;8.00;;;6.70;;
11113;SDS011;5610;52.154;9.198;2022-08-19T00:57:44;8.37;;;7.27;;
11113;SDS011;5610;52.154;9.198;2022-08-19T01:00:33;7.10;;;6.50;;
11113;SDS011;5610;52.154;9.198;2022-08-19T01:03:20;7.43;;;6.60;;
11113;SDS011;5610;52.154;9.198;2022-08-19T01:06:07;7.27;;;6.43;;
11113;SDS011;5610;52.154;9.198;2022-08-19T01:08:53;10.70;;;7.30;;
11113;SDS011;5610;52.154;9.198;2022-08-19T01:11:39;8.30;;;7.50;;
11113;SDS011;5610;52.154;9.198;2022-08-19T01:14:28;11.13;;;6.80;;
11113;SDS011;5610;52.154;9.198;2022-08-19T01:17:14;11.23;;;8.00;;
11113;SDS011;5610;52.154;9.198;2022-08-19T01:20:01;9.80;;;8.10;;
11113;SDS011;5610;52.154;9.198;2022-08-19T01:22:49;9.30;;;7.33;;
11113;SDS011;5610;52.154;9.198;2022-08-19T01:25:40;7.90;;;7.10;;
11113;SDS011;5610;52.154;9.198;2022-08-19T01:28:28;8.23;;;7.13;;
11113;SDS011;5610;52.154;9.198;2022-08-19T01:31:14;8.77;;;7.07;;
11113;SDS011;5610;52.154;9.198;2022-08-19T01:34:03;13.40;;;8.27;;
11113;SDS011;5610;52.154;9.198;2022-08-19T01:36:48;9.43;;;7.90;;
11113;SDS011;5610;52.154;9.198;2022-08-19T01:39:35;10.73;;;8.43;;
11113;SDS011;5610;52.154;9.198;2022-08-19T01:42:20;10.60;;;7.60;;
11113;SDS011;5610;52.154;9.198;2022-08-19T01:45:06;11.50;;;8.43;;
11113;SDS011;5610;52.154;9.198;2022-08-19T01:47:53;9.17;;;8.23;;
11113;SDS011;5610;52.154;9.198;2022-08-19T01:50:38;12.03;;;8.70;;
11113;SDS011;5610;52.154;9.198;2022-08-19T01:53:24;8.97;;;8.13;;
11113;SDS011;5610;52.154;9.198;2022-08-19T01:56:11;9.53;;;8.27;;
11113;SDS011;5610;52.154;9.198;2022-08-19T01:58:58;12.30;;;8.30;;
11113;SDS011;5610;52.154;9.198;2022-08-19T02:01:46;8.90;;;7.73;;
11113;SDS011;5610;52.154;9.198;2022-08-19T02:04:31;9.23;;;8.30;;
11113;SDS011;5610;52.154;9.198;2022-08-19T02:07:18;9.70;;;8.40;;
11113;SDS011;5610;52.154;9.198;2022-08-19T02:10:05;10.17;;;9.27;;
11113;SDS011;5610;52.154;9.198;2022-08-19T02:12:54;9.13;;;8.20;;
11113;SDS011;5610;52.154;9.198;2022-08-19T02:15:39;9.07;;;8.17;;
11113;SDS011;5610;52.154;9.198;2022-08-19T02:18:25;8.43;;;7.57;;
11113;SDS011;5610;52.154;9.198;2022-08-19T02:21:10;8.50;;;7.80;;
11113;SDS011;5610;52.154;9.198;2022-08-19T02:23:56;8.57;;;7.70;;
11113;SDS011;5610;52.154;9.198;2022-08-19T02:26:42;9.00;;;8.20;;
11113;SDS011;5610;52.154;9.198;2022-08-19T02:29:29;8.63;;;7.83;;
11113;SDS011;5610;52.154;9.198;2022-08-19T02:32:14;7.87;;;7.13;;
11113;SDS011;5610;52.154;9.198;2022-08-19T02:35:00;8.40;;;7.60;;
11113;SDS011;5610;52.154;9.198;2022-08-19T02:37:45;9.53;;;8.50;;
11113;SDS011;5610;52.154;9.198;2022-08-19T02:40:49;9.47;;;8.13;;
11113;SDS011;5610;52.154;9.198;2022-08-19T02:43:36;8.30;;;7.53;;
11113;SDS011;5610;52.154;9.198;2022-08-19T02:46:25;7.47;;;6.73;;
11113;SDS011;5610;52.154;9.198;2022-08-19T02:49:13;7.67;;;6.87;;
11113;SDS011;5610;52.154;9.198;2022-08-19T02:51:59;8.67;;;6.77;;
11113;SDS011;5610;52.154;9.198;2022-08-19T02:54:45;9.37;;;7.43;;
11113;SDS011;5610;52.154;9.198;2022-08-19T02:57:30;8.77;;;7.87;;
11113;SDS011;5610;52.154;9.198;2022-08-19T03:00:16;9.43;;;8.07;;
11113;SDS011;5610;52.154;9.198;2022-08-19T03:03:04;13.17;;;9.00;;
11113;SDS011;5610;52.154;9.198;2022-08-19T03:05:49;11.60;;;10.03;;
11113;SDS011;5610;52.154;9.198;2022-08-19T03:08:34;12.13;;;10.47;;
11113;SDS011;5610;52.154;9.198;2022-08-19T03:11:23;16.30;;;11.60;;
11113;SDS011;5610;52.154;9.198;2022-08-19T03:14:10;14.83;;;11.97;;
11113;SDS011;5610;52.154;9.198;2022-08-19T03:16:56;12.73;;;11.63;;
11113;SDS011;5610;52.154;9.198;2022-08-19T03:19:43;12.83;;;11.53;;
11113;SDS011;5610;52.154;9.198;2022-08-19T03:22:28;12.23;;;11.10;;
11113;SDS011;5610;52.154;9.198;2022-08-19T03:25:14;15.33;;;13.77;;
11113;SDS011;5610;52.154;9.198;2022-08-19T03:27:59;14.53;;;13.07;;
11113;SDS011;5610;52.154;9.198;2022-08-19T03:30:54;15.20;;;13.90;;
11113;SDS011;5610;52.154;9.198;2022-08-19T03:33:41;16.37;;;14.67;;
11113;SDS011;5610;52.154;9.198;2022-08-19T03:36:28;15.07;;;13.50;;
11113;SDS011;5610;52.154;9.198;2022-08-19T03:39:14;16.13;;;13.00;;
11113;SDS011;5610;52.154;9.198;2022-08-19T03:42:00;15.30;;;12.03;;
11113;SDS011;5610;52.154;9.198;2022-08-19T03:44:45;12.80;;;11.70;;
11113;SDS011;5610;52.154;9.198;2022-08-19T03:47:31;15.10;;;12.13;;
11113;SDS011;5610;52.154;9.198;2022-08-19T03:50:17;13.20;;;11.77;;
11113;SDS011;5610;52.154;9.198;2022-08-19T03:53:04;13.03;;;11.83;;
11113;SDS011;5610;52.154;9.198;2022-08-19T03:55:49;12.87;;;11.57;;
11113;SDS011;5610;52.154;9.198;2022-08-19T03:58:35;13.07;;;11.73;;
11113;SDS011;5610;52.154;9.198;2022-08-19T04:01:22;12.77;;;11.60;;
11113;SDS011;5610;52.154;9.198;2022-08-19T04:04:10;14.67;;;12.37;;
11113;SDS011;5610;52.154;9.198;2022-08-19T04:06:55;13.20;;;11.97;;
11113;SDS011;5610;52.154;9.198;2022-08-19T04:09:42;14.47;;;12.23;;
11113;SDS011;5610;52.154;9.198;2022-08-19T04:12:28;13.30;;;11.87;;
11113;SDS011;5610;52.154;9.198;2022-08-19T04:15:14;16.83;;;12.60;;
11113;SDS011;5610;52.154;9.198;2022-08-19T04:18:00;14.27;;;12.13;;
11113;SDS011;5610;52.154;9.198;2022-08-19T04:20:45;14.90;;;12.10;;
11113;SDS011;5610;52.154;9.198;2022-08-19T04:23:32;13.10;;;10.87;;
11113;SDS011;5610;52.154;9.198;2022-08-19T04:26:21;13.70;;;12.30;;
11113;SDS011;5610;52.154;9.198;2022-08-19T04:29:09;15.63;;;11.60;;
11113;SDS011;5610;52.154;9.198;2022-08-19T04:31:58;13.80;;;12.40;;
11113;SDS011;5610;52.154;9.198;2022-08-19T04:34:44;16.20;;;14.50;;
11113;SDS011;5610;52.154;9.198;2022-08-19T04:37:29;15.17;;;13.57;;
11113;SDS011;5610;52.154;9.198;2022-08-19T04:40:15;17.20;;;14.67;;
11113;SDS011;5610;52.154;9.198;2022-08-19T04:43:20;17.77;;;15.30;;
11113;SDS011;5610;52.154;9.198;2022-08-19T04:46:05;16.30;;;14.10;;
11113;SDS011;5610;52.154;9.198;2022-08-19T04:48:51;15.87;;;13.50;;
11113;SDS011;5610;52.154;9.198;2022-08-19T04:51:39;15.20;;;13.63;;
11113;SDS011;5610;52.154;9.198;2022-08-19T04:54:25;14.70;;;13.17;;
11113;SDS011;5610;52.154;9.198;2022-08-19T04:57:11;21.40;;;14.33;;
11113;SDS011;5610;52.154;9.198;2022-08-19T04:59:57;14.87;;;13.27;;
11113;SDS011;5610;52.154;9.198;2022-08-19T05:02:43;15.27;;;13.70;;
11113;SDS011;5610;52.154;9.198;2022-08-19T05:05:28;22.43;;;14.50;;
11113;SDS011;5610;52.154;9.198;2022-08-19T05:08:16;16.20;;;13.30;;
11113;SDS011;5610;52.154;9.198;2022-08-19T05:11:07;15.20;;;13.23;;
11113;SDS011;5610;52.154;9.198;2022-08-19T05:13:55;15.87;;;13.53;;
11113;SDS011;5610;52.154;9.198;2022-08-19T05:16:42;15.87;;;14.23;;
11113;SDS011;5610;52.154;9.198;2022-08-19T05:19:27;16.40;;;14.70;;
11113;SDS011;5610;52.154;9.198;2022-08-19T05:22:36;15.67;;;13.20;;
11113;SDS011;5610;52.154;9.198;2022-08-19T05:25:21;20.80;;;15.40;;
11113;SDS011;5610;52.154;9.198;2022-08-19T05:28:09;18.70;;;16.73;;
11113;SDS011;5610;52.154;9.198;2022-08-19T05:30:54;18.93;;;15.87;;
11113;SDS011;5610;52.154;9.198;2022-08-19T05:33:41;17.47;;;15.50;;
11113;SDS011;5610;52.154;9.198;2022-08-19T05:36:27;18.97;;;15.93;;
11113;SDS011;5610;52.154;9.198;2022-08-19T05:39:15;17.90;;;15.47;;
11113;SDS011;5610;52.154;9.198;2022-08-19T05:42:02;20.60;;;15.27;;
11113;SDS011;5610;52.154;9.198;2022-08-19T05:44:50;16.87;;;15.23;;
11113;SDS011;5610;52.154;9.198;2022-08-19T05:47:35;18.90;;;16.50;;
11113;SDS011;5610;52.154;9.198;2022-08-19T05:50:22;18.27;;;16.37;;
11113;SDS011;5610;52.154;9.198;2022-08-19T05:53:07;17.90;;;15.80;;
11113;SDS011;5610;52.154;9.198;2022-08-19T05:55:53;20.13;;;15.80;;
11113;SDS011;5610;52.154;9.198;2022-08-19T05:58:38;18.37;;;15.23;;
11113;SDS011;5610;52.154;9.198;2022-08-19T06:01:24;17.63;;;15.83;;
11113;SDS011;5610;52.154;9.198;2022-08-19T06:04:11;18.17;;;14.97;;
11113;SDS011;5610;52.154;9.198;2022-08-19T06:06:58;15.20;;;13.77;;
11113;SDS011;5610;52.154;9.198;2022-08-19T06:09:45;15.73;;;13.90;;
11113;SDS011;5610;52.154;9.198;2022-08-19T06:12:33;15.70;;;14.10;;
11113;SDS011;5610;52.154;9.198;2022-08-19T06:15:19;15.63;;;13.57;;
11113;SDS011;5610;52.154;9.198;2022-08-19T06:18:10;14.90;;;13.13;;
11113;SDS011;5610;52.154;9.198;2022-08-19T06:20:55;18.10;;;13.73;;
11113;SDS011;5610;52.154;9.198;2022-08-19T06:23:42;16.03;;;13.70;;
11113;SDS011;5610;52.154;9.198;2022-08-19T06:26:31;16.60;;;14.80;;
11113;SDS011;5610;52.154;9.198;2022-08-19T06:29:19;16.03;;;14.50;;
11113;SDS011;5610;52.154;9.198;2022-08-19T06:32:05;14.50;;;13.10;;
11113;SDS011;5610;52.154;9.198;2022-08-19T06:34:50;14.20;;;12.80;;
11113;SDS011;5610;52.154;9.198;2022-08-19T06:37:36;15.50;;;13.67;;
11113;SDS011;5610;52.154;9.198;2022-08-19T06:40:23;15.13;;;12.63;;
11113;SDS011;5610;52.154;9.198;2022-08-19T06:43:11;13.80;;;12.40;;
11113;SDS011;5610;52.154;9.198;2022-08-19T06:45:56;13.73;;;12.33;;
11113;SDS011;5610;52.154;9.198;2022-08-19T06:48:42;16.00;;;13.77;;
11113;SDS011;5610;52.154;9.198;2022-08-19T06:51:28;14.90;;;13.30;;
11113;SDS011;5610;52.154;9.198;2022-08-19T06:54:15;14.13;;;12.83;;
11113;SDS011;5610;52.154;9.198;2022-08-19T06:57:02;12.80;;;11.47;;
11113;SDS011;5610;52.154;9.198;2022-08-19T06:59:48;11.87;;;10.60;;
11113;SDS011;5610;52.154;9.198;2022-08-19T07:02:33;12.60;;;11.30;;
11113;SDS011;5610;52.154;9.198;2022-08-19T07:05:21;11.70;;;10.50;;
11113;SDS011;5610;52.154;9.198;2022-08-19T07:08:06;11.10;;;10.13;;
11113;SDS011;5610;52.154;9.198;2022-08-19T07:10:52;11.30;;;10.00;;
11113;SDS011;5610;52.154;9.198;2022-08-19T07:13:39;15.40;;;9.87;;
11113;SDS011;5610;52.154;9.198;2022-08-19T07:16:27;9.43;;;8.53;;
11113;SDS011;5610;52.154;9.198;2022-08-19T07:19:12;10.10;;;8.17;;
11113;SDS011;5610;52.154;9.198;2022-08-19T07:21:58;8.47;;;7.70;;
11113;SDS011;5610;52.154;9.198;2022-08-19T07:24:45;11.40;;;8.03;;
11113;SDS011;5610;52.154;9.198;2022-08-19T07:27:30;9.37;;;8.00;;
11113;SDS011;5610;52.154;9.198;2022-08-19T07:30:17;10.00;;;9.00;;
11113;SDS011;5610;52.154;9.198;2022-08-19T07:33:02;12.13;;;9.23;;
11113;SDS011;5610;52.154;9.198;2022-08-19T07:35:48;9.70;;;8.47;;
11113;SDS011;5610;52.154;9.198;2022-08-19T07:38:34;9.47;;;8.57;;
11113;SDS011;5610;52.154;9.198;2022-08-19T07:41:19;10.80;;;7.87;;
11113;SDS011;5610;52.154;9.198;2022-08-19T07:44:06;8.90;;;7.87;;
11113;SDS011;5610;52.154;9.198;2022-08-19T07:46:55;8.57;;;7.77;;
11113;SDS011;5610;52.154;9.198;2022-08-19T07:49:46;8.23;;;7.30;;
11113;SDS011;5610;52.154;9.198;2022-08-19T07:52:32;10.73;;;7.80;;
11113;SDS011;5610;52.154;9.198;2022-08-19T07:55:21;8.37;;;7.03;;
11113;SDS011;5610;52.154;9.198;2022-08-19T07:58:09;6.70;;;6.00;;
11113;SDS011;5610;52.154;9.198;2022-08-19T08:00:55;8.47;;;6.90;;
11113;SDS011;5610;52.154;9.198;2022-08-19T08:03:42;7.90;;;6.80;;
11113;SDS011;5610;52.154;9.198;2022-08-19T08:06:45;6.43;;;5.83;;
11113;SDS011;5610;52.154;9.198;2022-08-19T08:09:48;6.50;;;5.90;;
11113;SDS011;5610;52.154;9.198;2022-08-19T08:12:37;7.47;;;6.63;;
11113;SDS011;5610;52.154;9.198;2022-08-19T08:15:24;6.87;;;6.17;;
11113;SDS011;5610;52.154;9.198;2022-08-19T08:18:10;7.20;;;6.10;;
11113;SDS011;5610;52.154;9.198;2022-08-19T08:20:57;7.50;;;6.80;;
11113;SDS011;5610;52.154;9.198;2022-08-19T08:23:43;14.23;;;5.67;;
11113;SDS011;5610;52.154;9.198;2022-08-19T08:26:28;6.77;;;6.17;;
11113;SDS011;5610;52.154;9.198;2022-08-19T08:29:14;5.67;;;5.10;;
11113;SDS011;5610;52.154;9.198;2022-08-19T08:31:59;6.80;;;5.67;;
11113;SDS011;5610;52.154;9.198;2022-08-19T08:34:45;6.03;;;4.90;;
11113;SDS011;5610;52.154;9.198;2022-08-19T08:37:31;6.37;;;5.17;;
11113;SDS011;5610;52.154;9.198;2022-08-19T08:40:18;7.03;;;5.30;;
11113;SDS011;5610;52.154;9.198;2022-08-19T08:43:11;5.13;;;4.67;;
11113;SDS011;5610;52.154;9.198;2022-08-19T08:46:08;6.00;;;4.73;;
11113;SDS011;5610;52.154;9.198;2022-08-19T08:48:58;7.60;;;5.70;;
11113;SDS011;5610;52.154;9.198;2022-08-19T08:51:49;6.07;;;5.50;;
11113;SDS011;5610;52.154;9.198;2022-08-19T08:54:40;4.13;;;3.73;;
11113;SDS011;5610;52.154;9.198;2022-08-19T08:57:28;5.37;;;3.80;;
11113;SDS011;5610;52.154;9.198;2022-08-19T09:00:21;4.90;;;4.30;;
11113;SDS011;5610;52.154;9.198;2022-08-19T09:03:12;4.77;;;4.27;;
11113;SDS011;5610;52.154;9.198;2022-08-19T09:06:04;8.83;;;4.57;;
11113;SDS011;5610;52.154;9.198;2022-08-19T09:08:56;7.53;;;4.33;;
11113;SDS011;5610;52.154;9.198;2022-08-19T09:11:50;5.73;;;4.17;;
11113;SDS011;5610;52.154;9.198;2022-08-19T09:14:45;4.10;;;3.80;;
11113;SDS011;5610;52.154;9.198;2022-08-19T09:17:35;3.73;;;3.30;;
11113;SDS011;5610;52.154;9.198;2022-08-19T09:20:23;5.57;;;3.20;;
11113;SDS011;5610;52.154;9.198;2022-08-19T09:23:09;4.30;;;3.53;;
11113;SDS011;5610;52.154;9.198;2022-08-19T09:25:55;6.20;;;3.77;;
11113;SDS011;5610;52.154;9.198;2022-08-19T09:28:42;4.40;;;3.53;;
11113;SDS011;5610;52.154;9.198;2022-08-19T09:31:28;7.63;;;3.70;;
11113;SDS011;5610;52.154;9.198;2022-08-19T09:34:16;3.50;;;3.20;;
11113;SDS011;5610;52.154;9.198;2022-08-19T09:37:03;4.37;;;3.27;;
11113;SDS011;5610;52.154;9.198;2022-08-19T09:39:48;3.27;;;2.97;;
11113;SDS011;5610;52.154;9.198;2022-08-19T09:42:34;5.10;;;3.33;;
11113;SDS011;5610;52.154;9.198;2022-08-19T09:45:21;6.63;;;4.20;;
11113;SDS011;5610;52.154;9.198;2022-08-19T09:48:06;3.90;;;3.60;;
11113;SDS011;5610;52.154;9.198;2022-08-19T09:50:51;5.00;;;3.83;;
11113;SDS011;5610;52.154;9.198;2022-08-19T09:53:37;3.73;;;3.10;;
11113;SDS011;5610;52.154;9.198;2022-08-19T09:56:25;3.90;;;3.50;;
11113;SDS011;5610;52.154;9.198;2022-08-19T09:59:11;3.90;;;3.10;;
11113;SDS011;5610;52.154;9.198;2022-08-19T10:01:57;7.77;;;3.57;;
11113;SDS011;5610;52.154;9.198;2022-08-19T10:04:43;4.03;;;3.73;;
11113;SDS011;5610;52.154;9.198;2022-08-19T10:07:46;4.77;;;3.93;;
11113;SDS011;5610;52.154;9.198;2022-08-19T10:10:34;3.90;;;3.33;;
11113;SDS011;5610;52.154;9.198;2022-08-19T10:13:21;4.70;;;3.60;;
11113;SDS011;5610;52.154;9.198;2022-08-19T10:16:09;5.77;;;3.57;;
11113;SDS011;5610;52.154;9.198;2022-08-19T10:18:58;3.70;;;3.03;;
11113;SDS011;5610;52.154;9.198;2022-08-19T10:21:44;3.37;;;3.07;;
11113;SDS011;5610;52.154;9.198;2022-08-19T10:24:29;4.10;;;3.17;;
11113;SDS011;5610;52.154;9.198;2022-08-19T10:27:15;5.00;;;3.00;;
11113;SDS011;5610;52.154;9.198;2022-08-19T10:30:02;6.23;;;3.50;;
11113;SDS011;5610;52.154;9.198;2022-08-19T10:32:48;6.37;;;3.60;;
11113;SDS011;5610;52.154;9.198;2022-08-19T10:35:35;6.77;;;3.83;;
11113;SDS011;5610;52.154;9.198;2022-08-19T10:38:20;4.80;;;3.80;;
11113;SDS011;5610;52.154;9.198;2022-08-19T10:41:06;4.00;;;3.60;;
11113;SDS011;5610;52.154;9.198;2022-08-19T10:43:53;4.00;;;3.70;;
11113;SDS011;5610;52.154;9.198;2022-08-19T10:46:41;3.87;;;3.33;;
11113;SDS011;5610;52.154;9.198;2022-08-19T10:49:30;4.20;;;3.57;;
11113;SDS011;5610;52.154;9.198;2022-08-19T10:52:37;3.50;;;3.20;;
11113;SDS011;5610;52.154;9.198;2022-08-19T10:55:23;6.10;;;3.20;;
11113;SDS011;5610;52.154;9.198;2022-08-19T10:58:27;3.43;;;3.00;;
11113;SDS011;5610;52.154;9.198;2022-08-19T11:01:14;3.10;;;2.60;;
11113;SDS011;5610;52.154;9.198;2022-08-19T11:04:00;4.67;;;2.23;;
11113;SDS011;5610;52.154;9.198;2022-08-19T11:06:47;3.00;;;2.20;;
11113;SDS011;5610;52.154;9.198;2022-08-19T11:09:37;3.70;;;2.10;;
11113;SDS011;5610;52.154;9.198;2022-08-19T11:12:24;4.90;;;1.90;;
11113;SDS011;5610;52.154;9.198;2022-08-19T11:15:11;4.90;;;2.70;;
11113;SDS011;5610;52.154;9.198;2022-08-19T11:17:56;4.23;;;2.83;;
11113;SDS011;5610;52.154;9.198;2022-08-19T11:20:41;8.43;;;2.60;;
11113;SDS011;5610;52.154;9.198;2022-08-19T11:23:27;1.90;;;1.60;;
11113;SDS011;5610;52.154;9.198;2022-08-19T11:26:14;3.67;;;2.10;;
11113;SDS011;5610;52.154;9.198;2022-08-19T11:28:59;3.20;;;2.10;;
11113;SDS011;5610;52.154;9.198;2022-08-19T11:31:45;1.90;;;1.70;;
11113;SDS011;5610;52.154;9.198;2022-08-19T11:34:32;3.80;;;1.88;;
11113;SDS011;5610;52.154;9.198;2022-08-19T11:37:18;1.52;;;1.42;;
11113;SDS011;5610;52.154;9.198;2022-08-19T11:40:05;2.47;;;1.55;;
11113;SDS011;5610;52.154;9.198;2022-08-19T11:42:52;2.20;;;1.80;;
11113;SDS011;5610;52.154;9.198;2022-08-19T11:45:40;1.30;;;1.13;;
11113;SDS011;5610;52.154;9.198;2022-08-19T11:48:25;1.70;;;1.30;;
11113;SDS011;5610;52.154;9.198;2022-08-19T11:51:12;2.90;;;1.60;;
11113;SDS011;5610;52.154;9.198;2022-08-19T11:53:59;4.65;;;1.50;;
11113;SDS011;5610;52.154;9.198;2022-08-19T11:56:45;1.75;;;1.48;;
11113;SDS011;5610;52.154;9.198;2022-08-19T11:59:34;3.13;;;1.50;;
11113;SDS011;5610;52.154;9.198;2022-08-19T12:02:19;4.25;;;1.65;;
11113;SDS011;5610;52.154;9.198;2022-08-19T12:05:05;1.77;;;1.55;;
11113;SDS011;5610;52.154;9.198;2022-08-19T12:07:51;4.18;;;1.52;;
11113;SDS011;5610;52.154;9.198;2022-08-19T12:10:38;3.42;;;1.48;;
11113;SDS011;5610;52.154;9.198;2022-08-19T12:13:24;2.75;;;1.35;;
11113;SDS011;5610;52.154;9.198;2022-08-19T12:16:12;4.10;;;1.70;;
11113;SDS011;5610;52.154;9.198;2022-08-19T12:18:59;2.35;;;1.20;;
11113;SDS011;5610;52.154;9.198;2022-08-19T12:21:47;4.75;;;1.60;;
11113;SDS011;5610;52.154;9.198;2022-08-19T12:24:33;2.45;;;1.40;;
11113;SDS011;5610;52.154;9.198;2022-08-19T12:27:19;3.05;;;1.83;;
11113;SDS011;5610;52.154;9.198;2022-08-19T12:30:05;2.83;;;1.33;;
11113;SDS011;5610;52.154;9.198;2022-08-19T12:32:53;4.13;;;2.08;;
11113;SDS011;5610;52.154;9.198;2022-08-19T12:35:39;3.05;;;1.70;;
11113;SDS011;5610;52.154;9.198;2022-08-19T12:38:25;3.70;;;1.50;;
11113;SDS011;5610;52.154;9.198;2022-08-19T12:41:13;2.10;;;1.33;;
11113;SDS011;5610;52.154;9.198;2022-08-19T12:44:01;2.53;;;1.70;;
11113;SDS011;5610;52.154;9.198;2022-08-19T12:46:47;2.30;;;1.58;;
11113;SDS011;5610;52.154;9.198;2022-08-19T12:49:35;1.77;;;1.50;;
11113;SDS011;5610;52.154;9.198;2022-08-19T12:52:23;2.47;;;1.50;;
11113;SDS011;5610;52.154;9.198;2022-08-19T12:55:10;1.90;;;1.70;;
11113;SDS011;5610;52.154;9.198;2022-08-19T12:57:56;2.95;;;1.60;;
11113;SDS011;5610;52.154;9.198;2022-08-19T13:00:41;2.33;;;1.50;;
11113;SDS011;5610;52.154;9.198;2022-08-19T13:03:26;2.45;;;2.00;;
11113;SDS011;5610;52.154;9.198;2022-08-19T13:06:14;3.88;;;1.80;;
11113;SDS011;5610;52.154;9.198;2022-08-19T13:09:00;2.47;;;1.63;;
11113;SDS011;5610;52.154;9.198;2022-08-19T13:11:45;2.45;;;1.63;;
11113;SDS011;5610;52.154;9.198;2022-08-19T13:14:30;3.33;;;1.80;;
11113;SDS011;5610;52.154;9.198;2022-08-19T13:17:16;4.43;;;1.90;;
11113;SDS011;5610;52.154;9.198;2022-08-19T13:20:01;2.58;;;1.77;;
11113;SDS011;5610;52.154;9.198;2022-08-19T13:22:49;2.67;;;1.92;;
11113;SDS011;5610;52.154;9.198;2022-08-19T13:25:35;2.08;;;1.88;;
11113;SDS011;5610;52.154;9.198;2022-08-19T13:28:20;2.65;;;1.63;;
11113;SDS011;5610;52.154;9.198;2022-08-19T13:31:05;3.55;;;1.67;;
11113;SDS011;5610;52.154;9.198;2022-08-19T13:34:08;3.17;;;2.03;;
11113;SDS011;5610;52.154;9.198;2022-08-19T13:36:54;2.25;;;1.65;;
11113;SDS011;5610;52.154;9.198;2022-08-19T13:39:40;1.88;;;1.50;;
11113;SDS011;5610;52.154;9.198;2022-08-19T13:42:26;4.15;;;1.85;;
11113;SDS011;5610;52.154;9.198;2022-08-19T13:45:14;2.00;;;1.70;;
11113;SDS011;5610;52.154;9.198;2022-08-19T13:48:02;2.13;;;1.92;;
11113;SDS011;5610;52.154;9.198;2022-08-19T13:50:52;1.95;;;1.60;;
11113;SDS011;5610;52.154;9.198;2022-08-19T13:53:37;2.60;;;1.50;;
11113;SDS011;5610;52.154;9.198;2022-08-19T13:56:26;2.75;;;1.50;;
11113;SDS011;5610;52.154;9.198;2022-08-19T13:59:12;4.80;;;1.60;;
11113;SDS011;5610;52.154;9.198;2022-08-19T14:01:58;2.15;;;1.58;;
11113;SDS011;5610;52.154;9.198;2022-08-19T14:04:43;3.30;;;1.85;;
11113;SDS011;5610;52.154;9.198;2022-08-19T14:07:31;2.08;;;1.65;;
11113;SDS011;5610;52.154;9.198;2022-08-19T14:10:17;5.30;;;1.58;;
11113;SDS011;5610;52.154;9.198;2022-08-19T14:13:04;4.05;;;1.48;;
11113;SDS011;5610;52.154;9.198;2022-08-19T14:15:49;2.90;;;1.85;;
11113;SDS011;5610;52.154;9.198;2022-08-19T14:18:35;1.73;;;1.63;;
11113;SDS011;5610;52.154;9.198;2022-08-19T14:21:21;4.13;;;2.20;;
11113;SDS011;5610;52.154;9.198;2022-08-19T14:24:08;1.60;;;1.50;;
11113;SDS011;5610;52.154;9.198;2022-08-19T14:26:54;2.47;;;1.80;;
11113;SDS011;5610;52.154;9.198;2022-08-19T14:29:41;2.33;;;1.90;;
11113;SDS011;5610;52.154;9.198;2022-08-19T14:32:26;3.30;;;1.60;;
11113;SDS011;5610;52.154;9.198;2022-08-19T14:35:13;2.67;;;1.87;;
11113;SDS011;5610;52.154;9.198;2022-08-19T14:38:00;3.37;;;1.90;;
11113;SDS011;5610;52.154;9.198;2022-08-19T14:40:46;2.37;;;2.17;;
11113;SDS011;5610;52.154;9.198;2022-08-19T14:43:32;2.10;;;1.90;;
11113;SDS011;5610;52.154;9.198;2022-08-19T14:46:20;2.43;;;1.80;;
11113;SDS011;5610;52.154;9.198;2022-08-19T14:49:06;4.03;;;2.50;;
11113;SDS011;5610;52.154;9.198;2022-08-19T14:51:52;4.00;;;2.47;;
11113;SDS011;5610;52.154;9.198;2022-08-19T14:54:37;2.20;;;2.10;;
11113;SDS011;5610;52.154;9.198;2022-08-19T14:57:23;2.10;;;1.90;;
11113;SDS011;5610;52.154;9.198;2022-08-19T15:00:09;3.27;;;2.00;;
11113;SDS011;5610;52.154;9.198;2022-08-19T15:02:58;4.20;;;2.53;;
11113;SDS011;5610;52.154;9.198;2022-08-19T15:05:43;3.00;;;1.97;;
11113;SDS011;5610;52.154;9.198;2022-08-19T15:08:29;4.53;;;1.90;;
11113;SDS011;5610;52.154;9.198;2022-08-19T15:11:17;2.60;;;2.40;;
11113;SDS011;5610;52.154;9.198;2022-08-19T15:14:04;2.20;;;2.00;;
11113;SDS011;5610;52.154;9.198;2022-08-19T15:16:50;2.40;;;2.10;;
11113;SDS011;5610;52.154;9.198;2022-08-19T15:19:37;2.93;;;2.43;;
11113;SDS011;5610;52.154;9.198;2022-08-19T15:22:22;3.57;;;2.30;;
11113;SDS011;5610;52.154;9.198;2022-08-19T15:25:09;2.60;;;2.27;;
11113;SDS011;5610;52.154;9.198;2022-08-19T15:27:56;4.83;;;2.43;;
11113;SDS011;5610;52.154;9.198;2022-08-19T15:30:41;2.40;;;1.93;;
11113;SDS011;5610;52.154;9.198;2022-08-19T15:33:27;2.47;;;2.03;;
11113;SDS011;5610;52.154;9.198;2022-08-19T15:36:13;3.63;;;2.40;;
11113;SDS011;5610;52.154;9.198;2022-08-19T15:38:59;3.90;;;2.27;;
11113;SDS011;5610;52.154;9.198;2022-08-19T15:41:45;8.23;;;2.60;;
11113;SDS011;5610;52.154;9.198;2022-08-19T15:44:31;3.77;;;2.20;;
11113;SDS011;5610;52.154;9.198;2022-08-19T15:47:16;5.27;;;2.60;;
11113;SDS011;5610;52.154;9.198;2022-08-19T15:50:04;2.80;;;2.17;;
11113;SDS011;5610;52.154;9.198;2022-08-19T15:52:52;2.40;;;1.90;;
11113;SDS011;5610;52.154;9.198;2022-08-19T15:55:41;2.60;;;2.40;;
11113;SDS011;5610;52.154;9.198;2022-08-19T15:58:28;2.30;;;2.10;;
11113;SDS011;5610;52.154;9.198;2022-08-19T16:01:31;1.93;;;1.83;;
11113;SDS011;5610;52.154;9.198;2022-08-19T16:04:34;2.90;;;2.10;;
11113;SDS011;5610;52.154;9.198;2022-08-19T16:07:37;3.00;;;2.23;;
11113;SDS011;5610;52.154;9.198;2022-08-19T16:10:24;3.30;;;2.47;;
11113;SDS011;5610;52.154;9.198;2022-08-19T16:13:11;2.40;;;2.20;;
11113;SDS011;5610;52.154;9.198;2022-08-19T16:15:56;2.90;;;2.37;;
11113;SDS011;5610;52.154;9.198;2022-08-19T16:18:42;2.67;;;2.40;;
11113;SDS011;5610;52.154;9.198;2022-08-19T16:21:30;2.20;;;2.00;;
11113;SDS011;5610;52.154;9.198;2022-08-19T16:24:16;2.57;;;2.37;;
11113;SDS011;5610;52.154;9.198;2022-08-19T16:27:05;3.40;;;2.30;;
11113;SDS011;5610;52.154;9.198;2022-08-19T16:29:50;2.50;;;2.30;;
11113;SDS011;5610;52.154;9.198;2022-08-19T16:32:36;3.30;;;2.37;;
11113;SDS011;5610;52.154;9.198;2022-08-19T16:35:21;2.83;;;2.20;;
11113;SDS011;5610;52.154;9.198;2022-08-19T16:38:07;3.03;;;2.40;;
11113;SDS011;5610;52.154;9.198;2022-08-19T16:40:52;2.00;;;1.80;;
11113;SDS011;5610;52.154;9.198;2022-08-19T16:43:40;2.93;;;2.27;;
11113;SDS011;5610;52.154;9.198;2022-08-19T16:46:25;4.47;;;2.40;;
11113;SDS011;5610;52.154;9.198;2022-08-19T16:49:12;2.47;;;2.27;;
11113;SDS011;5610;52.154;9.198;2022-08-19T16:51:58;2.40;;;2.20;;
11113;SDS011;5610;52.154;9.198;2022-08-19T16:54:45;2.60;;;2.10;;